sensor_id;sensor_type;location;lat;lon;timestamp;pressure;altitude;pressure_sealevel;temperature;humidity
74936;BME280;63501;55.570;37.488;2024-01-11T00:01:50;97152.91;;;23.57;24.51
74936;BME280;63501;55.570;37.488;2024-01-11T00:04:17;97131.88;;;23.58;24.61
74936;BME280;63501;55.570;37.488;2024-01-11T00:06:45;97136.19;;;23.59;24.27
74936;BME280;63501;55.570;37.488;2024-01-11T00:09:12;97117.22;;;23.60;24.20
74936;BME280;63501;55.570;37.488;2024-01-11T00:11:40;97108.75;;;23.60;23.84
74936;BME280;63501;55.570;37.488;2024-01-11T00:14:08;97097.47;;;23.60;23.87
74936;BME280;63501;55.570;37.488;2024-01-11T00:16:35;97095.41;;;23.60;24.14
74936;BME280;63501;55.570;37.488;2024-01-11T00:19:02;97090.31;;;23.59;24.19
74936;BME280;63501;55.570;37.488;2024-01-11T00:21:29;97061.88;;;23.57;23.94
74936;BME280;63501;55.570;37.488;2024-01-11T00:23:56;97069.06;;;23.58;23.80
74936;BME280;63501;55.570;37.488;2024-01-11T00:26:23;97046.47;;;23.58;24.20
74936;BME280;63501;55.570;37.488;2024-01-11T00:28:52;97040.84;;;23.58;23.64
74936;BME280;63501;55.570;37.488;2024-01-11T00:31:19;97028.00;;;23.57;24.06
74936;BME280;63501;55.570;37.488;2024-01-11T00:33:46;97006.84;;;23.50;24.07
74936;BME280;63501;55.570;37.488;2024-01-11T00:36:17;97003.94;;;23.56;24.04
74936;BME280;63501;55.570;37.488;2024-01-11T00:38:45;97006.00;;;23.55;24.12
74936;BME280;63501;55.570;37.488;2024-01-11T00:41:12;97001.13;;;23.56;24.13
74936;BME280;63501;55.570;37.488;2024-01-11T00:43:40;96980.63;;;23.55;24.10
74936;BME280;63501;55.570;37.488;2024-01-11T00:46:08;96985.50;;;23.55;24.19
74936;BME280;63501;55.570;37.488;2024-01-11T00:48:36;96967.06;;;23.54;24.23
74936;BME280;63501;55.570;37.488;2024-01-11T00:51:04;96958.59;;;23.54;23.99
74936;BME280;63501;55.570;37.488;2024-01-11T00:53:31;96955.78;;;23.54;24.04
74936;BME280;63501;55.570;37.488;2024-01-11T00:55:59;96946.56;;;23.53;24.14
74936;BME280;63501;55.570;37.488;2024-01-11T00:58:26;96932.78;;;23.49;24.26
74936;BME280;63501;55.570;37.488;2024-01-11T01:00:53;96919.44;;;23.50;24.30
74936;BME280;63501;55.570;37.488;2024-01-11T01:03:22;96926.06;;;23.53;24.21
74936;BME280;63501;55.570;37.488;2024-01-11T01:05:49;96916.28;;;23.54;24.72
74936;BME280;63501;55.570;37.488;2024-01-11T01:08:17;96900.13;;;23.54;24.82
74936;BME280;63501;55.570;37.488;2024-01-11T01:10:44;96896.88;;;23.50;24.66
74936;BME280;63501;55.570;37.488;2024-01-11T01:13:11;96910.66;;;23.54;24.86
74936;BME280;63501;55.570;37.488;2024-01-11T01:15:38;96902.94;;;23.54;24.39
74936;BME280;63501;55.570;37.488;2024-01-11T01:18:05;96874.75;;;23.54;25.31
74936;BME280;63501;55.570;37.488;2024-01-11T01:20:34;96885.47;;;23.56;25.41
74936;BME280;63501;55.570;37.488;2024-01-11T01:23:01;96863.03;;;23.50;25.32
74936;BME280;63501;55.570;37.488;2024-01-11T01:25:28;96854.69;;;23.58;25.34
74936;BME280;63501;55.570;37.488;2024-01-11T01:27:55;96853.16;;;23.57;25.24
74936;BME280;63501;55.570;37.488;2024-01-11T01:30:24;96846.22;;;23.58;25.37
74936;BME280;63501;55.570;37.488;2024-01-11T01:32:51;96829.31;;;23.58;25.75
74936;BME280;63501;55.570;37.488;2024-01-11T01:35:19;96830.81;;;23.59;25.92
74936;BME280;63501;55.570;37.488;2024-01-11T01:37:47;96811.28;;;23.61;25.73
74936;BME280;63501;55.570;37.488;2024-01-11T01:40:18;96811.28;;;23.61;25.99
74936;BME280;63501;55.570;37.488;2024-01-11T01:42:45;96808.72;;;23.63;25.92
74936;BME280;63501;55.570;37.488;2024-01-11T01:45:12;96802.28;;;23.62;25.56
74936;BME280;63501;55.570;37.488;2024-01-11T01:47:40;96791.78;;;23.63;26.08
74936;BME280;63501;55.570;37.488;2024-01-11T01:50:10;96777.44;;;23.61;25.80
74936;BME280;63501;55.570;37.488;2024-01-11T01:52:39;96763.88;;;23.59;26.02
74936;BME280;63501;55.570;37.488;2024-01-11T01:55:12;96748.78;;;23.57;26.31
74936;BME280;63501;55.570;37.488;2024-01-11T01:57:42;96764.00;;;23.67;26.31
74936;BME280;63501;55.570;37.488;2024-01-11T02:00:11;96752.94;;;23.69;26.53
74936;BME280;63501;55.570;37.488;2024-01-11T02:02:40;96746.31;;;23.66;26.55
74936;BME280;63501;55.570;37.488;2024-01-11T02:05:10;96736.00;;;23.69;26.71
74936;BME280;63501;55.570;37.488;2024-01-11T02:07:38;96733.41;;;23.71;26.68
74936;BME280;63501;55.570;37.488;2024-01-11T02:10:07;96724.38;;;23.72;26.88
74936;BME280;63501;55.570;37.488;2024-01-11T02:12:36;96718.53;;;23.70;27.19
74936;BME280;63501;55.570;37.488;2024-01-11T02:15:05;96705.38;;;23.73;26.80
74936;BME280;63501;55.570;37.488;2024-01-11T02:17:33;96699.75;;;23.73;27.15
74936;BME280;63501;55.570;37.488;2024-01-11T02:20:00;96691.09;;;23.71;27.02
74936;BME280;63501;55.570;37.488;2024-01-11T02:22:32;96691.50;;;23.75;27.03
74936;BME280;63501;55.570;37.488;2024-01-11T02:25:02;96682.28;;;23.74;27.22
74936;BME280;63501;55.570;37.488;2024-01-11T02:27:30;96680.22;;;23.75;26.97
74936;BME280;63501;55.570;37.488;2024-01-11T02:29:57;96681.19;;;23.78;27.22
74936;BME280;63501;55.570;37.488;2024-01-11T02:32:24;96671.53;;;23.73;27.01
74936;BME280;63501;55.570;37.488;2024-01-11T02:34:52;96653.31;;;23.74;27.14
74936;BME280;63501;55.570;37.488;2024-01-11T02:37:18;96653.19;;;23.80;27.51
74936;BME280;63501;55.570;37.488;2024-01-11T02:39:46;96647.56;;;23.80;27.31
74936;BME280;63501;55.570;37.488;2024-01-11T02:42:14;96648.84;;;23.79;26.94
74936;BME280;63501;55.570;37.488;2024-01-11T02:44:41;96634.19;;;23.80;27.26
74936;BME280;63501;55.570;37.488;2024-01-11T02:47:09;96635.91;;;23.83;27.46
74936;BME280;63501;55.570;37.488;2024-01-11T02:49:36;96624.63;;;23.83;27.39
74936;BME280;63501;55.570;37.488;2024-01-11T02:52:04;96621.03;;;23.83;27.37
74936;BME280;63501;55.570;37.488;2024-01-11T02:54:31;96616.91;;;23.84;27.58
74936;BME280;63501;55.570;37.488;2024-01-11T02:56:58;96606.38;;;23.84;27.43
74936;BME280;63501;55.570;37.488;2024-01-11T02:59:26;96612.25;;;23.86;27.80
74936;BME280;63501;55.570;37.488;2024-01-11T03:01:54;96601.50;;;23.85;27.46
74936;BME280;63501;55.570;37.488;2024-01-11T03:04:21;96601.16;;;23.88;27.77
74936;BME280;63501;55.570;37.488;2024-01-11T03:06:48;96594.19;;;23.89;27.67
74936;BME280;63501;55.570;37.488;2024-01-11T03:09:15;96578.78;;;23.90;27.41
74936;BME280;63501;55.570;37.488;2024-01-11T03:11:42;96570.47;;;23.85;27.61
74936;BME280;63501;55.570;37.488;2024-01-11T03:14:09;96575.97;;;23.90;27.90
74936;BME280;63501;55.570;37.488;2024-01-11T03:16:38;96573.91;;;23.91;28.38
74936;BME280;63501;55.570;37.488;2024-01-11T03:19:05;96557.53;;;23.89;28.46
74936;BME280;63501;55.570;37.488;2024-01-11T03:21:31;96564.13;;;23.92;28.55
74936;BME280;63501;55.570;37.488;2024-01-11T03:23:59;96552.84;;;23.92;28.88
74936;BME280;63501;55.570;37.488;2024-01-11T03:26:26;96544.91;;;23.90;28.62
74936;BME280;63501;55.570;37.488;2024-01-11T03:28:53;96547.22;;;23.92;28.61
74936;BME280;63501;55.570;37.488;2024-01-11T03:31:20;96526.69;;;23.91;28.89
74936;BME280;63501;55.570;37.488;2024-01-11T03:33:49;96535.16;;;23.91;28.23
74936;BME280;63501;55.570;37.488;2024-01-11T03:36:16;96534.59;;;23.93;29.10
74936;BME280;63501;55.570;37.488;2024-01-11T03:38:43;96534.06;;;23.94;28.89
74936;BME280;63501;55.570;37.488;2024-01-11T03:41:10;96524.28;;;23.95;29.07
74936;BME280;63501;55.570;37.488;2024-01-11T03:43:38;96508.66;;;23.94;28.71
74936;BME280;63501;55.570;37.488;2024-01-11T03:46:05;96503.91;;;23.89;28.73
74936;BME280;63501;55.570;37.488;2024-01-11T03:48:32;96498.88;;;23.95;28.92
74936;BME280;63501;55.570;37.488;2024-01-11T03:51:03;96502.44;;;23.96;28.52
74936;BME280;63501;55.570;37.488;2024-01-11T03:53:30;96484.22;;;23.97;28.58
74936;BME280;63501;55.570;37.488;2024-01-11T03:56:01;96501.16;;;23.97;28.77
74936;BME280;63501;55.570;37.488;2024-01-11T03:58:28;96492.88;;;23.99;28.36
74936;BME280;63501;55.570;37.488;2024-01-11T04:00:55;96485.19;;;23.99;28.25
74936;BME280;63501;55.570;37.488;2024-01-11T04:03:23;96481.03;;;24.00;28.45
74936;BME280;63501;55.570;37.488;2024-01-11T04:05:50;96491.78;;;24.02;28.41
74936;BME280;63501;55.570;37.488;2024-01-11T04:08:18;96485.19;;;23.99;28.58
74936;BME280;63501;55.570;37.488;2024-01-11T04:10:46;96459.44;;;24.03;28.34
74936;BME280;63501;55.570;37.488;2024-01-11T04:13:13;96473.53;;;24.03;28.47
74936;BME280;63501;55.570;37.488;2024-01-11T04:15:40;96469.41;;;24.04;28.47
74936;BME280;63501;55.570;37.488;2024-01-11T04:18:08;96472.97;;;24.05;28.75
74936;BME280;63501;55.570;37.488;2024-01-11T04:20:35;96463.19;;;24.06;28.67
74936;BME280;63501;55.570;37.488;2024-01-11T04:23:02;96468.28;;;24.07;28.79
74936;BME280;63501;55.570;37.488;2024-01-11T04:25:31;96462.09;;;24.09;28.92
74936;BME280;63501;55.570;37.488;2024-01-11T04:27:58;96451.16;;;24.05;29.37
74936;BME280;63501;55.570;37.488;2024-01-11T04:30:25;96453.63;;;24.09;29.29
74936;BME280;63501;55.570;37.488;2024-01-11T04:32:52;96459.47;;;24.11;29.36
74936;BME280;63501;55.570;37.488;2024-01-11T04:35:19;96455.88;;;24.10;29.71
74936;BME280;63501;55.570;37.488;2024-01-11T04:37:46;96455.88;;;24.10;29.66
74936;BME280;63501;55.570;37.488;2024-01-11T04:40:14;96449.09;;;24.06;30.16
74936;BME280;63501;55.570;37.488;2024-01-11T04:42:42;96452.31;;;24.10;30.22
74936;BME280;63501;55.570;37.488;2024-01-11T04:45:10;96444.59;;;24.10;30.07
74936;BME280;63501;55.570;37.488;2024-01-11T04:47:36;96437.44;;;24.09;30.18
74936;BME280;63501;55.570;37.488;2024-01-11T04:50:05;96431.06;;;24.09;29.90
74936;BME280;63501;55.570;37.488;2024-01-11T04:52:32;96434.41;;;24.07;29.80
74936;BME280;63501;55.570;37.488;2024-01-11T04:55:00;96436.47;;;24.07;30.06
74936;BME280;63501;55.570;37.488;2024-01-11T04:57:28;96430.84;;;24.07;29.85
74936;BME280;63501;55.570;37.488;2024-01-11T04:59:57;96425.00;;;24.05;29.76
74936;BME280;63501;55.570;37.488;2024-01-11T05:02:25;96422.94;;;24.05;29.92
74936;BME280;63501;55.570;37.488;2024-01-11T05:04:52;96417.09;;;24.03;29.87
74936;BME280;63501;55.570;37.488;2024-01-11T05:07:19;96427.81;;;24.05;29.81
74936;BME280;63501;55.570;37.488;2024-01-11T05:09:46;96409.38;;;24.04;29.93
74936;BME280;63501;55.570;37.488;2024-01-11T05:12:13;96402.22;;;24.02;29.82
74936;BME280;63501;55.570;37.488;2024-01-11T05:14:40;96396.59;;;24.02;29.78
74936;BME280;63501;55.570;37.488;2024-01-11T05:17:09;96395.06;;;24.01;29.97
74936;BME280;63501;55.570;37.488;2024-01-11T05:19:36;96385.66;;;23.99;29.87
74936;BME280;63501;55.570;37.488;2024-01-11T05:22:04;96393.56;;;24.00;30.37
74936;BME280;63501;55.570;37.488;2024-01-11T05:24:31;96376.44;;;23.98;30.17
74936;BME280;63501;55.570;37.488;2024-01-11T05:26:59;96382.06;;;23.98;29.96
74936;BME280;63501;55.570;37.488;2024-01-11T05:29:26;96368.16;;;24.00;30.32
74936;BME280;63501;55.570;37.488;2024-01-11T05:31:53;96377.94;;;23.99;30.35
74936;BME280;63501;55.570;37.488;2024-01-11T05:34:21;96375.13;;;23.99;30.39
74936;BME280;63501;55.570;37.488;2024-01-11T05:36:48;96377.94;;;23.99;30.61
74936;BME280;63501;55.570;37.488;2024-01-11T05:39:16;96361.91;;;23.94;30.28
74936;BME280;63501;55.570;37.488;2024-01-11T05:41:43;96369.53;;;24.15;30.23
74936;BME280;63501;55.570;37.488;2024-01-11T05:44:11;96370.25;;;24.51;30.07
74936;BME280;63501;55.570;37.488;2024-01-11T05:46:38;96359.78;;;24.90;29.48
74936;BME280;63501;55.570;37.488;2024-01-11T05:49:05;96349.47;;;25.31;29.39
74936;BME280;63501;55.570;37.488;2024-01-11T05:51:34;96347.72;;;25.81;28.80
74936;BME280;63501;55.570;37.488;2024-01-11T05:54:01;96351.13;;;26.20;28.38
74936;BME280;63501;55.570;37.488;2024-01-11T05:56:29;96337.38;;;26.57;28.38
74936;BME280;63501;55.570;37.488;2024-01-11T05:58:56;96335.28;;;26.90;28.27
74936;BME280;63501;55.570;37.488;2024-01-11T06:01:24;96336.41;;;27.20;27.78
74936;BME280;63501;55.570;37.488;2024-01-11T06:03:51;96327.09;;;27.44;27.72
74936;BME280;63501;55.570;37.488;2024-01-11T06:06:18;96322.59;;;27.58;27.53
74936;BME280;63501;55.570;37.488;2024-01-11T06:08:47;96329.56;;;27.82;27.16
74936;BME280;63501;55.570;37.488;2024-01-11T06:11:14;96311.44;;;27.95;27.13
74936;BME280;63501;55.570;37.488;2024-01-11T06:13:43;96317.41;;;28.16;26.96
74936;BME280;63501;55.570;37.488;2024-01-11T06:16:10;96318.56;;;28.31;26.93
74936;BME280;63501;55.570;37.488;2024-01-11T06:18:38;96314.47;;;28.41;26.59
74936;BME280;63501;55.570;37.488;2024-01-11T06:21:05;96310.34;;;28.52;26.27
74936;BME280;63501;55.570;37.488;2024-01-11T06:23:32;96301.56;;;28.58;26.34
74936;BME280;63501;55.570;37.488;2024-01-11T06:26:01;96304.59;;;28.69;25.84
74936;BME280;63501;55.570;37.488;2024-01-11T06:28:28;96302.38;;;28.78;25.71
74936;BME280;63501;55.570;37.488;2024-01-11T06:30:55;96294.31;;;28.84;25.50
74936;BME280;63501;55.570;37.488;2024-01-11T06:33:22;96285.38;;;28.87;25.17
74936;BME280;63501;55.570;37.488;2024-01-11T06:35:49;96292.13;;;28.92;25.46
74936;BME280;63501;55.570;37.488;2024-01-11T06:38:16;96287.19;;;28.92;25.17
74936;BME280;63501;55.570;37.488;2024-01-11T06:40:44;96284.78;;;28.89;24.91
74936;BME280;63501;55.570;37.488;2024-01-11T06:43:12;96275.34;;;28.86;24.71
74936;BME280;63501;55.570;37.488;2024-01-11T06:45:40;96281.34;;;28.90;24.88
74936;BME280;63501;55.570;37.488;2024-01-11T06:48:07;96284.47;;;28.85;24.70
74936;BME280;63501;55.570;37.488;2024-01-11T06:50:34;96280.97;;;28.77;24.76
74936;BME280;63501;55.570;37.488;2024-01-11T06:53:02;96286.63;;;28.67;24.39
74936;BME280;63501;55.570;37.488;2024-01-11T06:55:29;96276.88;;;28.60;24.89
74936;BME280;63501;55.570;37.488;2024-01-11T06:57:56;96282.94;;;28.47;24.76
74936;BME280;63501;55.570;37.488;2024-01-11T07:00:26;96286.75;;;28.32;24.94
74936;BME280;63501;55.570;37.488;2024-01-11T07:02:53;96271.81;;;28.14;24.87
74936;BME280;63501;55.570;37.488;2024-01-11T07:05:20;96276.69;;;28.04;24.90
74936;BME280;63501;55.570;37.488;2024-01-11T07:07:47;96282.72;;;27.91;25.16
74936;BME280;63501;55.570;37.488;2024-01-11T07:10:14;96282.31;;;27.77;25.16
74936;BME280;63501;55.570;37.488;2024-01-11T07:12:41;96286.22;;;27.64;25.06
74936;BME280;63501;55.570;37.488;2024-01-11T07:15:11;96276.19;;;27.46;25.23
74936;BME280;63501;55.570;37.488;2024-01-11T07:17:40;96265.16;;;27.33;25.20
74936;BME280;63501;55.570;37.488;2024-01-11T07:20:08;96273.25;;;27.19;25.28
74936;BME280;63501;55.570;37.488;2024-01-11T07:22:36;96282.81;;;27.06;25.38
74936;BME280;63501;55.570;37.488;2024-01-11T07:25:03;96278.00;;;26.92;25.53
74936;BME280;63501;55.570;37.488;2024-01-11T07:27:30;96279.81;;;26.79;25.29
74936;BME280;63501;55.570;37.488;2024-01-11T07:29:58;96261.25;;;26.61;25.32
74936;BME280;63501;55.570;37.488;2024-01-11T07:32:25;96278.28;;;26.53;25.76
74936;BME280;63501;55.570;37.488;2024-01-11T07:34:53;96276.66;;;26.43;25.91
74936;BME280;63501;55.570;37.488;2024-01-11T07:37:21;96267.81;;;26.31;25.86
74936;BME280;63501;55.570;37.488;2024-01-11T07:39:48;96263.34;;;26.20;25.56
74936;BME280;63501;55.570;37.488;2024-01-11T07:42:15;96261.91;;;26.11;25.84
74936;BME280;63501;55.570;37.488;2024-01-11T07:44:42;96262.91;;;25.99;25.84
74936;BME280;63501;55.570;37.488;2024-01-11T07:47:10;96259.72;;;25.95;25.22
74936;BME280;63501;55.570;37.488;2024-01-11T07:49:37;96254.84;;;25.88;25.46
74936;BME280;63501;55.570;37.488;2024-01-11T07:52:06;96259.97;;;25.81;25.03
74936;BME280;63501;55.570;37.488;2024-01-11T07:54:33;96253.00;;;25.75;25.27
74936;BME280;63501;55.570;37.488;2024-01-11T07:57:00;96251.88;;;25.70;25.29
74936;BME280;63501;55.570;37.488;2024-01-11T07:59:31;96240.56;;;25.63;25.29
74936;BME280;63501;55.570;37.488;2024-01-11T08:02:01;96242.47;;;25.60;24.80
74936;BME280;63501;55.570;37.488;2024-01-11T08:04:29;96238.53;;;25.55;24.71
74936;BME280;63501;55.570;37.488;2024-01-11T08:06:56;96238.16;;;25.51;24.87
74936;BME280;63501;55.570;37.488;2024-01-11T08:09:26;96234.97;;;25.47;25.08
74936;BME280;63501;55.570;37.488;2024-01-11T08:11:53;96224.44;;;25.40;24.92
74936;BME280;63501;55.570;37.488;2024-01-11T08:14:21;96223.69;;;25.40;24.26
74936;BME280;63501;55.570;37.488;2024-01-11T08:16:48;96220.69;;;25.38;24.93
74936;BME280;63501;55.570;37.488;2024-01-11T08:19:15;96225.97;;;25.33;24.40
74936;BME280;63501;55.570;37.488;2024-01-11T08:21:43;96213.72;;;25.31;24.17
74936;BME280;63501;55.570;37.488;2024-01-11T08:24:10;96222.59;;;25.27;24.75
74936;BME280;63501;55.570;37.488;2024-01-11T08:26:38;96217.31;;;25.24;24.32
74936;BME280;63501;55.570;37.488;2024-01-11T08:29:05;96211.31;;;25.20;23.90
74936;BME280;63501;55.570;37.488;2024-01-11T08:31:34;96216.75;;;25.18;24.56
74936;BME280;63501;55.570;37.488;2024-01-11T08:34:02;96186.44;;;25.03;24.31
74936;BME280;63501;55.570;37.488;2024-01-11T08:36:33;96206.41;;;25.13;24.49
74936;BME280;63501;55.570;37.488;2024-01-11T08:39:02;96200.75;;;25.05;24.07
74936;BME280;63501;55.570;37.488;2024-01-11T08:41:31;96205.09;;;25.06;23.71
74936;BME280;63501;55.570;37.488;2024-01-11T08:43:59;96198.50;;;25.03;24.28
74936;BME280;63501;55.570;37.488;2024-01-11T08:46:28;96201.31;;;25.03;24.23
74936;BME280;63501;55.570;37.488;2024-01-11T08:48:56;96192.84;;;24.96;24.03
74936;BME280;63501;55.570;37.488;2024-01-11T08:51:23;96197.38;;;24.99;23.93
74936;BME280;63501;55.570;37.488;2024-01-11T08:53:50;96198.50;;;24.96;23.68
74936;BME280;63501;55.570;37.488;2024-01-11T08:56:18;96180.78;;;24.95;23.76
74936;BME280;63501;55.570;37.488;2024-01-11T08:58:45;96188.69;;;24.97;23.78
74936;BME280;63501;55.570;37.488;2024-01-11T09:01:15;96182.06;;;25.25;24.00
74936;BME280;63501;55.570;37.488;2024-01-11T09:03:43;96178.53;;;25.65;23.98
74936;BME280;63501;55.570;37.488;2024-01-11T09:06:13;96177.53;;;26.10;23.46
74936;BME280;63501;55.570;37.488;2024-01-11T09:08:40;96165.78;;;26.46;23.68
74936;BME280;63501;55.570;37.488;2024-01-11T09:11:08;96169.94;;;26.87;23.08
74936;BME280;63501;55.570;37.488;2024-01-11T09:13:36;96149.47;;;27.14;22.94
74936;BME280;63501;55.570;37.488;2024-01-11T09:16:03;96150.34;;;27.51;22.67
74936;BME280;63501;55.570;37.488;2024-01-11T09:18:34;96142.94;;;27.83;22.58
74936;BME280;63501;55.570;37.488;2024-01-11T09:21:03;96130.50;;;28.05;22.22
74936;BME280;63501;55.570;37.488;2024-01-11T09:23:31;96184.38;;;28.23;22.17
74936;BME280;63501;55.570;37.488;2024-01-11T09:25:58;96220.53;;;28.39;22.07
74936;BME280;63501;55.570;37.488;2024-01-11T09:28:26;96230.59;;;28.50;21.99
74936;BME280;63501;55.570;37.488;2024-01-11T09:30:52;96235.16;;;28.63;22.10
74936;BME280;63501;55.570;37.488;2024-01-11T09:33:25;96238.75;;;28.73;22.01
74936;BME280;63501;55.570;37.488;2024-01-11T09:35:54;96240.00;;;28.80;22.00
74936;BME280;63501;55.570;37.488;2024-01-11T09:38:22;96231.63;;;28.82;21.91
74936;BME280;63501;55.570;37.488;2024-01-11T09:40:57;96237.09;;;28.97;21.39
74936;BME280;63501;55.570;37.488;2024-01-11T09:43:27;96231.41;;;29.07;21.42
74936;BME280;63501;55.570;37.488;2024-01-11T09:45:55;96226.50;;;29.07;21.25
74936;BME280;63501;55.570;37.488;2024-01-11T09:48:23;96232.47;;;29.11;21.32
74936;BME280;63501;55.570;37.488;2024-01-11T09:50:53;96219.28;;;29.06;21.30
74936;BME280;63501;55.570;37.488;2024-01-11T09:53:22;96242.97;;;29.18;21.47
74936;BME280;63501;55.570;37.488;2024-01-11T09:55:50;96232.63;;;29.13;21.30
74936;BME280;63501;55.570;37.488;2024-01-11T09:58:18;96241.47;;;29.17;21.07
74936;BME280;63501;55.570;37.488;2024-01-11T10:00:47;96248.50;;;29.16;21.33
74936;BME280;63501;55.570;37.488;2024-01-11T10:03:15;96241.47;;;29.17;21.09
74936;BME280;63501;55.570;37.488;2024-01-11T10:05:43;96258.53;;;29.17;21.31
74936;BME280;63501;55.570;37.488;2024-01-11T10:08:12;96266.66;;;29.31;20.97
74936;BME280;63501;55.570;37.488;2024-01-11T10:10:39;96268.47;;;29.36;20.91
74936;BME280;63501;55.570;37.488;2024-01-11T10:13:07;96273.69;;;29.39;20.67
74936;BME280;63501;55.570;37.488;2024-01-11T10:15:34;96285.81;;;29.40;20.49
74936;BME280;63501;55.570;37.488;2024-01-11T10:18:01;96285.53;;;29.36;20.61
74936;BME280;63501;55.570;37.488;2024-01-11T10:20:28;96290.31;;;29.33;20.28
74936;BME280;63501;55.570;37.488;2024-01-11T10:22:57;96281.16;;;29.25;20.24
74936;BME280;63501;55.570;37.488;2024-01-11T10:25:26;96294.03;;;29.26;19.89
74936;BME280;63501;55.570;37.488;2024-01-11T10:27:54;96300.03;;;29.20;19.99
74936;BME280;63501;55.570;37.488;2024-01-11T10:30:23;96304.50;;;29.14;19.75
74936;BME280;63501;55.570;37.488;2024-01-11T10:32:51;96307.63;;;29.08;19.67
74936;BME280;63501;55.570;37.488;2024-01-11T10:35:19;96325.53;;;29.01;19.19
74936;BME280;63501;55.570;37.488;2024-01-11T10:37:50;96324.09;;;28.83;19.42
74936;BME280;63501;55.570;37.488;2024-01-11T10:40:20;96329.00;;;28.72;19.65
74936;BME280;63501;55.570;37.488;2024-01-11T10:42:52;96337.75;;;28.57;19.57
74936;BME280;63501;55.570;37.488;2024-01-11T10:45:20;96341.41;;;28.40;19.51
74936;BME280;63501;55.570;37.488;2024-01-11T10:47:51;96348.59;;;28.24;19.56
74936;BME280;63501;55.570;37.488;2024-01-11T10:50:21;96360.72;;;28.07;19.70
74936;BME280;63501;55.570;37.488;2024-01-11T10:53:01;96366.81;;;27.86;19.79
74936;BME280;63501;55.570;37.488;2024-01-11T10:55:32;96366.03;;;27.68;19.90
74936;BME280;63501;55.570;37.488;2024-01-11T10:58:02;96394.69;;;27.55;20.51
74936;BME280;63501;55.570;37.488;2024-01-11T11:00:30;96389.19;;;27.40;20.98
74936;BME280;63501;55.570;37.488;2024-01-11T11:02:59;96407.34;;;27.37;21.74
74936;BME280;63501;55.570;37.488;2024-01-11T11:05:28;96411.13;;;27.39;22.11
74936;BME280;63501;55.570;37.488;2024-01-11T11:07:56;96428.72;;;27.63;22.36
74936;BME280;63501;55.570;37.488;2024-01-11T11:10:25;96431.19;;;27.84;22.25
74936;BME280;63501;55.570;37.488;2024-01-11T11:12:55;96442.75;;;28.03;22.21
74936;BME280;63501;55.570;37.488;2024-01-11T11:15:27;96449.91;;;28.21;22.09
74936;BME280;63501;55.570;37.488;2024-01-11T11:17:55;96450.59;;;28.30;22.00
74936;BME280;63501;55.570;37.488;2024-01-11T11:20:22;96462.16;;;28.49;21.76
74936;BME280;63501;55.570;37.488;2024-01-11T11:23:03;96475.09;;;28.60;21.58
74936;BME280;63501;55.570;37.488;2024-01-11T11:25:31;96472.94;;;28.68;21.97
74936;BME280;63501;55.570;37.488;2024-01-11T11:27:58;96477.31;;;28.79;21.64
74936;BME280;63501;55.570;37.488;2024-01-11T11:30:28;96478.16;;;28.89;21.76
74936;BME280;63501;55.570;37.488;2024-01-11T11:32:55;96497.41;;;28.98;21.80
74936;BME280;63501;55.570;37.488;2024-01-11T11:35:23;96507.91;;;29.05;21.32
74936;BME280;63501;55.570;37.488;2024-01-11T11:37:55;96518.88;;;29.09;21.13
74936;BME280;63501;55.570;37.488;2024-01-11T11:40:32;96507.50;;;29.09;21.04
74936;BME280;63501;55.570;37.488;2024-01-11T11:43:04;96517.88;;;29.14;21.12
74936;BME280;63501;55.570;37.488;2024-01-11T11:45:33;96525.38;;;29.19;20.76
74936;BME280;63501;55.570;37.488;2024-01-11T11:48:11;96537.41;;;29.27;20.61
74936;BME280;63501;55.570;37.488;2024-01-11T11:51:01;96551.38;;;29.33;20.49
74936;BME280;63501;55.570;37.488;2024-01-11T11:53:33;96551.09;;;29.38;20.33
74936;BME280;63501;55.570;37.488;2024-01-11T11:56:01;96559.03;;;29.40;20.31
74936;BME280;63501;55.570;37.488;2024-01-11T11:58:28;96572.69;;;29.41;20.20
74936;BME280;63501;55.570;37.488;2024-01-11T12:00:58;96577.94;;;29.45;20.23
74936;BME280;63501;55.570;37.488;2024-01-11T12:03:29;96587.97;;;29.46;20.08
74936;BME280;63501;55.570;37.488;2024-01-11T12:05:57;96592.34;;;29.47;19.92
74936;BME280;63501;55.570;37.488;2024-01-11T12:08:24;96583.22;;;29.48;19.76
74936;BME280;63501;55.570;37.488;2024-01-11T12:10:54;96601.41;;;29.53;19.91
74936;BME280;63501;55.570;37.488;2024-01-11T12:13:21;96586.16;;;29.58;19.61
74936;BME280;63501;55.570;37.488;2024-01-11T12:15:49;96597.53;;;29.58;19.22
74936;BME280;63501;55.570;37.488;2024-01-11T12:18:17;96609.41;;;29.64;19.50
74936;BME280;63501;55.570;37.488;2024-01-11T12:20:45;96604.63;;;29.67;19.34
74936;BME280;63501;55.570;37.488;2024-01-11T12:23:12;96617.09;;;29.71;19.23
74936;BME280;63501;55.570;37.488;2024-01-11T12:25:40;96601.34;;;29.70;19.33
74936;BME280;63501;55.570;37.488;2024-01-11T12:28:08;96606.13;;;29.68;18.99
74936;BME280;63501;55.570;37.488;2024-01-11T12:30:35;96625.78;;;29.73;18.89
74936;BME280;63501;55.570;37.488;2024-01-11T12:33:03;96625.63;;;29.71;18.81
74936;BME280;63501;55.570;37.488;2024-01-11T12:35:32;96627.59;;;29.69;18.77
74936;BME280;63501;55.570;37.488;2024-01-11T12:38:01;96634.94;;;29.72;18.82
74936;BME280;63501;55.570;37.488;2024-01-11T12:40:28;96639.44;;;29.75;18.52
74936;BME280;63501;55.570;37.488;2024-01-11T12:42:59;96644.69;;;29.78;18.91
74936;BME280;63501;55.570;37.488;2024-01-11T12:45:27;96657.28;;;29.75;18.63
74936;BME280;63501;55.570;37.488;2024-01-11T12:47:55;96666.09;;;29.70;18.80
74936;BME280;63501;55.570;37.488;2024-01-11T12:50:23;96670.38;;;29.61;18.65
74936;BME280;63501;55.570;37.488;2024-01-11T12:53:08;96671.63;;;29.50;18.48
74936;BME280;63501;55.570;37.488;2024-01-11T12:55:35;96681.44;;;29.40;18.33